sensor_id;sensor_type;location;lat;lon;timestamp;temperature;humidity
45137;DHT22;30894;51.740;19.498;2023-04-03T00:00:34;0.00;99.90
45137;DHT22;30894;51.740;19.498;2023-04-03T00:03:15;0.00;99.90
45137;DHT22;30894;51.740;19.498;2023-04-03T00:05:41;0.00;99.90
45137;DHT22;30894;51.740;19.498;2023-04-03T00:08:08;0.10;99.90
45137;DHT22;30894;51.740;19.498;2023-04-03T00:10:36;0.10;99.90
45137;DHT22;30894;51.740;19.498;2023-04-03T00:13:03;0.10;99.90
45137;DHT22;30894;51.740;19.498;2023-04-03T00:15:31;0.10;99.90
45137;DHT22;30894;51.740;19.498;2023-04-03T00:17:57;0.00;99.90
45137;DHT22;30894;51.740;19.498;2023-04-03T00:20:23;0.00;99.90
45137;DHT22;30894;51.740;19.498;2023-04-03T00:22:49;-0.10;99.90
45137;DHT22;30894;51.740;19.498;2023-04-03T00:25:15;-0.10;99.90
45137;DHT22;30894;51.740;19.498;2023-04-03T00:27:42;-0.20;99.90
45137;DHT22;30894;51.740;19.498;2023-04-03T00:30:09;-0.20;99.90
45137;DHT22;30894;51.740;19.498;2023-04-03T00:32:37;-0.20;99.90
45137;DHT22;30894;51.740;19.498;2023-04-03T00:35:03;-0.20;99.90
45137;DHT22;30894;51.740;19.498;2023-04-03T00:37:29;-0.20;99.90
45137;DHT22;30894;51.740;19.498;2023-04-03T00:39:56;-0.20;99.90
45137;DHT22;30894;51.740;19.498;2023-04-03T00:42:22;-0.20;99.90
45137;DHT22;30894;51.740;19.498;2023-04-03T00:47:17;-0.30;99.90
45137;DHT22;30894;51.740;19.498;2023-04-03T00:49:44;-0.40;99.90
45137;DHT22;30894;51.740;19.498;2023-04-03T00:52:15;-0.50;99.90
45137;DHT22;30894;51.740;19.498;2023-04-03T00:54:43;-0.50;99.90
45137;DHT22;30894;51.740;19.498;2023-04-03T00:57:11;-0.60;99.90
45137;DHT22;30894;51.740;19.498;2023-04-03T00:59:46;-0.70;99.90
45137;DHT22;30894;51.740;19.498;2023-04-03T01:02:15;-0.80;99.90
45137;DHT22;30894;51.740;19.498;2023-04-03T01:04:42;-0.80;99.90
45137;DHT22;30894;51.740;19.498;2023-04-03T01:07:18;-0.90;99.90
45137;DHT22;30894;51.740;19.498;2023-04-03T01:09:52;-1.00;99.90
45137;DHT22;30894;51.740;19.498;2023-04-03T01:12:26;-1.00;99.90
45137;DHT22;30894;51.740;19.498;2023-04-03T01:14:56;-1.10;99.90
45137;DHT22;30894;51.740;19.498;2023-04-03T01:17:28;-1.20;99.90
45137;DHT22;30894;51.740;19.498;2023-04-03T01:25:40;-1.40;99.90
45137;DHT22;30894;51.740;19.498;2023-04-03T01:28:11;-1.40;99.90
45137;DHT22;30894;51.740;19.498;2023-04-03T01:31:05;-1.40;99.90
45137;DHT22;30894;51.740;19.498;2023-04-03T01:33:37;-1.50;99.90
45137;DHT22;30894;51.740;19.498;2023-04-03T01:36:04;-1.50;99.90
45137;DHT22;30894;51.740;19.498;2023-04-03T01:38:31;-1.60;99.90
45137;DHT22;30894;51.740;19.498;2023-04-03T01:40:57;-1.60;99.90
45137;DHT22;30894;51.740;19.498;2023-04-03T01:43:23;-1.60;99.90
45137;DHT22;30894;51.740;19.498;2023-04-03T01:45:50;-1.60;99.90
45137;DHT22;30894;51.740;19.498;2023-04-03T01:48:18;-1.60;99.90
45137;DHT22;30894;51.740;19.498;2023-04-03T01:50:44;-1.70;99.90
45137;DHT22;30894;51.740;19.498;2023-04-03T01:53:10;-1.70;99.90
45137;DHT22;30894;51.740;19.498;2023-04-03T01:55:36;-1.80;99.90
45137;DHT22;30894;51.740;19.498;2023-04-03T01:58:02;-1.80;99.90
45137;DHT22;30894;51.740;19.498;2023-04-03T02:00:28;-1.90;99.90
45137;DHT22;30894;51.740;19.498;2023-04-03T02:02:54;-1.90;99.90
45137;DHT22;30894;51.740;19.498;2023-04-03T02:05:21;-1.90;99.90
45137;DHT22;30894;51.740;19.498;2023-04-03T02:07:47;-1.90;99.90
45137;DHT22;30894;51.740;19.498;2023-04-03T02:10:14;-2.00;99.90
45137;DHT22;30894;51.740;19.498;2023-04-03T02:12:40;-2.00;99.90
45137;DHT22;30894;51.740;19.498;2023-04-03T02:15:06;-2.00;99.90
45137;DHT22;30894;51.740;19.498;2023-04-03T02:17:34;-2.00;99.90
45137;DHT22;30894;51.740;19.498;2023-04-03T02:20:00;-1.90;99.90
45137;DHT22;30894;51.740;19.498;2023-04-03T02:22:27;-2.00;99.90
45137;DHT22;30894;51.740;19.498;2023-04-03T02:24:53;-2.00;99.90
45137;DHT22;30894;51.740;19.498;2023-04-03T02:27:19;-2.00;99.90
45137;DHT22;30894;51.740;19.498;2023-04-03T02:29:45;-2.00;99.90
45137;DHT22;30894;51.740;19.498;2023-04-03T02:32:11;-2.10;99.90
45137;DHT22;30894;51.740;19.498;2023-04-03T02:34:37;-2.10;99.90
45137;DHT22;30894;51.740;19.498;2023-04-03T02:37:03;-2.10;99.90
45137;DHT22;30894;51.740;19.498;2023-04-03T02:39:29;-2.10;99.90
45137;DHT22;30894;51.740;19.498;2023-04-03T02:41:56;-2.20;99.90
45137;DHT22;30894;51.740;19.498;2023-04-03T02:44:22;-2.20;99.90
45137;DHT22;30894;51.740;19.498;2023-04-03T02:46:49;-2.20;99.90
45137;DHT22;30894;51.740;19.498;2023-04-03T02:49:15;-2.20;99.90
45137;DHT22;30894;51.740;19.498;2023-04-03T02:51:41;-2.30;99.90
45137;DHT22;30894;51.740;19.498;2023-04-03T02:54:08;-2.30;99.90
45137;DHT22;30894;51.740;19.498;2023-04-03T02:56:34;-2.30;99.90
45137;DHT22;30894;51.740;19.498;2023-04-03T02:59:00;-2.30;99.90
45137;DHT22;30894;51.740;19.498;2023-04-03T03:01:26;-2.30;99.90
45137;DHT22;30894;51.740;19.498;2023-04-03T03:03:58;-2.20;99.90
45137;DHT22;30894;51.740;19.498;2023-04-03T03:06:26;-2.30;99.90
45137;DHT22;30894;51.740;19.498;2023-04-03T03:08:52;-2.20;99.90
45137;DHT22;30894;51.740;19.498;2023-04-03T03:11:19;-2.20;99.90
45137;DHT22;30894;51.740;19.498;2023-04-03T03:13:45;-2.20;99.90
45137;DHT22;30894;51.740;19.498;2023-04-03T03:16:11;-2.20;99.90
45137;DHT22;30894;51.740;19.498;2023-04-03T03:18:37;-2.20;99.90
45137;DHT22;30894;51.740;19.498;2023-04-03T03:21:04;-2.10;99.90
45137;DHT22;30894;51.740;19.498;2023-04-03T03:23:31;-2.10;99.90
45137;DHT22;30894;51.740;19.498;2023-04-03T03:26:00;-2.00;99.90
45137;DHT22;30894;51.740;19.498;2023-04-03T03:28:28;-2.00;99.90
45137;DHT22;30894;51.740;19.498;2023-04-03T03:30:55;-2.00;99.90
45137;DHT22;30894;51.740;19.498;2023-04-03T03:33:21;-1.90;99.90
45137;DHT22;30894;51.740;19.498;2023-04-03T03:35:48;-1.90;99.90
45137;DHT22;30894;51.740;19.498;2023-04-03T03:38:14;-1.90;99.90
45137;DHT22;30894;51.740;19.498;2023-04-03T03:40:40;-1.80;99.90
45137;DHT22;30894;51.740;19.498;2023-04-03T03:43:06;-1.70;99.90
45137;DHT22;30894;51.740;19.498;2023-04-03T03:45:32;-1.70;99.90
45137;DHT22;30894;51.740;19.498;2023-04-03T03:47:58;-1.70;99.90
45137;DHT22;30894;51.740;19.498;2023-04-03T03:50:24;-1.70;99.90
45137;DHT22;30894;51.740;19.498;2023-04-03T03:52:50;-1.60;99.90
45137;DHT22;30894;51.740;19.498;2023-04-03T03:55:17;-1.60;99.90
45137;DHT22;30894;51.740;19.498;2023-04-03T03:57:43;-1.60;99.90
45137;DHT22;30894;51.740;19.498;2023-04-03T04:00:10;-1.60;99.90
45137;DHT22;30894;51.740;19.498;2023-04-03T04:02:36;-1.60;99.90
45137;DHT22;30894;51.740;19.498;2023-04-03T04:05:03;-1.60;99.90
45137;DHT22;30894;51.740;19.498;2023-04-03T04:07:29;-1.70;99.90
45137;DHT22;30894;51.740;19.498;2023-04-03T04:09:56;-1.70;99.90
45137;DHT22;30894;51.740;19.498;2023-04-03T04:12:22;-1.80;99.90
45137;DHT22;30894;51.740;19.498;2023-04-03T04:14:48;-1.90;99.90
45137;DHT22;30894;51.740;19.498;2023-04-03T04:17:14;-1.90;99.90
45137;DHT22;30894;51.740;19.498;2023-04-03T04:19:40;-2.00;99.90
45137;DHT22;30894;51.740;19.498;2023-04-03T04:22:06;-2.00;99.90
45137;DHT22;30894;51.740;19.498;2023-04-03T04:24:33;-2.10;99.90
45137;DHT22;30894;51.740;19.498;2023-04-03T04:26:59;-2.20;99.90
45137;DHT22;30894;51.740;19.498;2023-04-03T04:29:25;-2.20;99.90
45137;DHT22;30894;51.740;19.498;2023-04-03T04:31:51;-2.20;99.90
45137;DHT22;30894;51.740;19.498;2023-04-03T04:34:17;-2.20;99.90
45137;DHT22;30894;51.740;19.498;2023-04-03T04:36:43;-2.30;99.90
45137;DHT22;30894;51.740;19.498;2023-04-03T04:39:09;-2.30;99.90
45137;DHT22;30894;51.740;19.498;2023-04-03T04:41:35;-2.20;99.90
45137;DHT22;30894;51.740;19.498;2023-04-03T04:44:02;-2.20;99.90
45137;DHT22;30894;51.740;19.498;2023-04-03T04:46:28;-2.20;99.90
45137;DHT22;30894;51.740;19.498;2023-04-03T04:49:04;-2.20;99.90
45137;DHT22;30894;51.740;19.498;2023-04-03T04:51:30;-2.20;99.90
45137;DHT22;30894;51.740;19.498;2023-04-03T04:53:56;-2.20;99.90
45137;DHT22;30894;51.740;19.498;2023-04-03T04:56:22;-2.20;99.90
45137;DHT22;30894;51.740;19.498;2023-04-03T04:58:48;-2.20;99.90
45137;DHT22;30894;51.740;19.498;2023-04-03T05:01:14;-2.20;99.90
45137;DHT22;30894;51.740;19.498;2023-04-03T05:03:41;-2.20;99.90
45137;DHT22;30894;51.740;19.498;2023-04-03T05:06:07;-2.20;99.90
45137;DHT22;30894;51.740;19.498;2023-04-03T05:08:34;-2.20;99.90
45137;DHT22;30894;51.740;19.498;2023-04-03T05:10:59;-2.20;99.90
45137;DHT22;30894;51.740;19.498;2023-04-03T05:13:26;-2.20;99.90
45137;DHT22;30894;51.740;19.498;2023-04-03T05:15:52;-2.20;99.90
45137;DHT22;30894;51.740;19.498;2023-04-03T05:18:21;-2.20;99.90
45137;DHT22;30894;51.740;19.498;2023-04-03T05:20:50;-2.20;99.90
45137;DHT22;30894;51.740;19.498;2023-04-03T05:23:18;-2.10;99.90
45137;DHT22;30894;51.740;19.498;2023-04-03T05:25:45;-2.00;99.90
45137;DHT22;30894;51.740;19.498;2023-04-03T05:28:14;-1.70;99.90
45137;DHT22;30894;51.740;19.498;2023-04-03T05:30:41;-1.30;99.90
45137;DHT22;30894;51.740;19.498;2023-04-03T05:33:07;-1.00;99.90
45137;DHT22;30894;51.740;19.498;2023-04-03T05:35:36;-0.60;99.90
45137;DHT22;30894;51.740;19.498;2023-04-03T05:38:06;-0.20;99.90
45137;DHT22;30894;51.740;19.498;2023-04-03T05:40:33;0.10;99.90
45137;DHT22;30894;51.740;19.498;2023-04-03T05:42:59;0.50;99.90
45137;DHT22;30894;51.740;19.498;2023-04-03T05:45:25;0.80;99.90
45137;DHT22;30894;51.740;19.498;2023-04-03T05:47:54;1.10;99.90
45137;DHT22;30894;51.740;19.498;2023-04-03T05:50:21;1.30;99.90
45137;DHT22;30894;51.740;19.498;2023-04-03T05:52:49;1.50;99.90
45137;DHT22;30894;51.740;19.498;2023-04-03T05:55:24;1.80;99.90
45137;DHT22;30894;51.740;19.498;2023-04-03T05:57:54;2.00;99.90
45137;DHT22;30894;51.740;19.498;2023-04-03T06:00:20;2.30;99.90
45137;DHT22;30894;51.740;19.498;2023-04-03T06:02:47;2.50;99.90
45137;DHT22;30894;51.740;19.498;2023-04-03T06:05:13;2.80;99.90
45137;DHT22;30894;51.740;19.498;2023-04-03T06:07:40;3.00;99.90
45137;DHT22;30894;51.740;19.498;2023-04-03T06:10:07;3.30;99.90
45137;DHT22;30894;51.740;19.498;2023-04-03T06:12:34;3.60;99.90
45137;DHT22;30894;51.740;19.498;2023-04-03T06:15:01;3.90;99.90
45137;DHT22;30894;51.740;19.498;2023-04-03T06:17:29;4.20;99.90
45137;DHT22;30894;51.740;19.498;2023-04-03T06:19:55;4.60;99.90
45137;DHT22;30894;51.740;19.498;2023-04-03T06:22:24;4.90;99.90
45137;DHT22;30894;51.740;19.498;2023-04-03T06:24:51;5.20;99.90
45137;DHT22;30894;51.740;19.498;2023-04-03T06:27:17;5.50;99.90
45137;DHT22;30894;51.740;19.498;2023-04-03T06:29:43;5.80;99.90
45137;DHT22;30894;51.740;19.498;2023-04-03T06:32:11;6.10;99.90
45137;DHT22;30894;51.740;19.498;2023-04-03T06:34:40;6.20;99.90
45137;DHT22;30894;51.740;19.498;2023-04-03T06:37:18;6.50;99.90
45137;DHT22;30894;51.740;19.498;2023-04-03T06:39:46;6.70;99.90
45137;DHT22;30894;51.740;19.498;2023-04-03T06:42:14;7.00;99.90
45137;DHT22;30894;51.740;19.498;2023-04-03T06:44:40;7.20;99.90
45137;DHT22;30894;51.740;19.498;2023-04-03T06:47:06;7.40;99.90
45137;DHT22;30894;51.740;19.498;2023-04-03T06:49:36;7.70;99.90
45137;DHT22;30894;51.740;19.498;2023-04-03T06:52:03;7.80;99.90
45137;DHT22;30894;51.740;19.498;2023-04-03T06:54:30;8.10;99.90
45137;DHT22;30894;51.740;19.498;2023-04-03T06:56:57;8.40;99.90
45137;DHT22;30894;51.740;19.498;2023-04-03T06:59:23;8.70;99.90
45137;DHT22;30894;51.740;19.498;2023-04-03T07:01:50;8.90;99.90
45137;DHT22;30894;51.740;19.498;2023-04-03T07:04:16;9.10;99.90
45137;DHT22;30894;51.740;19.498;2023-04-03T07:06:44;9.20;99.90
45137;DHT22;30894;51.740;19.498;2023-04-03T07:09:10;9.40;99.90
45137;DHT22;30894;51.740;19.498;2023-04-03T07:11:36;9.80;99.90
45137;DHT22;30894;51.740;19.498;2023-04-03T07:14:03;9.90;99.90
45137;DHT22;30894;51.740;19.498;2023-04-03T07:16:30;10.00;99.90
45137;DHT22;30894;51.740;19.498;2023-04-03T07:18:56;10.10;99.90
45137;DHT22;30894;51.740;19.498;2023-04-03T07:21:24;10.40;99.90
45137;DHT22;30894;51.740;19.498;2023-04-03T07:23:50;10.60;99.90
45137;DHT22;30894;51.740;19.498;2023-04-03T07:26:16;10.80;99.40
45137;DHT22;30894;51.740;19.498;2023-04-03T07:28:42;11.10;98.80
45137;DHT22;30894;51.740;19.498;2023-04-03T07:31:12;11.40;98.10
45137;DHT22;30894;51.740;19.498;2023-04-03T07:33:39;11.60;97.40
45137;DHT22;30894;51.740;19.498;2023-04-03T07:36:07;11.70;96.70
45137;DHT22;30894;51.740;19.498;2023-04-03T07:38:35;11.70;96.30
45137;DHT22;30894;51.740;19.498;2023-04-03T07:41:02;11.70;95.80
45137;DHT22;30894;51.740;19.498;2023-04-03T07:43:29;11.80;95.50
45137;DHT22;30894;51.740;19.498;2023-04-03T07:45:56;11.90;94.80
45137;DHT22;30894;51.740;19.498;2023-04-03T07:48:24;12.00;94.50
45137;DHT22;30894;51.740;19.498;2023-04-03T07:50:51;12.10;94.20
45137;DHT22;30894;51.740;19.498;2023-04-03T07:53:18;12.20;93.70
45137;DHT22;30894;51.740;19.498;2023-04-03T07:55:48;12.40;93.60
45137;DHT22;30894;51.740;19.498;2023-04-03T07:58:18;12.60;93.30
45137;DHT22;30894;51.740;19.498;2023-04-03T08:00:45;12.70;92.60
45137;DHT22;30894;51.740;19.498;2023-04-03T08:03:13;12.90;92.30
45137;DHT22;30894;51.740;19.498;2023-04-03T08:05:41;13.00;91.70
45137;DHT22;30894;51.740;19.498;2023-04-03T08:08:09;13.10;91.40
45137;DHT22;30894;51.740;19.498;2023-04-03T08:10:38;13.50;91.00
45137;DHT22;30894;51.740;19.498;2023-04-03T08:13:04;13.80;90.40
45137;DHT22;30894;51.740;19.498;2023-04-03T08:15:31;13.70;90.10
45137;DHT22;30894;51.740;19.498;2023-04-03T08:17:58;13.70;90.10
45137;DHT22;30894;51.740;19.498;2023-04-03T08:20:26;13.50;90.10
45137;DHT22;30894;51.740;19.498;2023-04-03T08:22:53;13.50;90.10
45137;DHT22;30894;51.740;19.498;2023-04-03T08:25:19;13.30;90.50
45137;DHT22;30894;51.740;19.498;2023-04-03T08:27:46;13.80;90.40
45137;DHT22;30894;51.740;19.498;2023-04-03T08:30:12;14.10;89.50
45137;DHT22;30894;51.740;19.498;2023-04-03T08:32:39;14.50;88.30
45137;DHT22;30894;51.740;19.498;2023-04-03T08:35:10;14.80;87.00
45137;DHT22;30894;51.740;19.498;2023-04-03T08:37:37;15.20;85.90
45137;DHT22;30894;51.740;19.498;2023-04-03T08:40:05;15.40;84.90
45137;DHT22;30894;51.740;19.498;2023-04-03T08:45:50;15.80;83.10
45137;DHT22;30894;51.740;19.498;2023-04-03T08:50:58;16.00;81.50
45137;DHT22;30894;51.740;19.498;2023-04-03T08:53:28;16.20;81.20
45137;DHT22;30894;51.740;19.498;2023-04-03T08:55:58;16.40;80.90
45137;DHT22;30894;51.740;19.498;2023-04-03T08:58:30;16.60;80.40
45137;DHT22;30894;51.740;19.498;2023-04-03T09:01:05;16.80;80.30
45137;DHT22;30894;51.740;19.498;2023-04-03T09:03:41;16.80;79.60
45137;DHT22;30894;51.740;19.498;2023-04-03T09:06:13;16.90;79.60
45137;DHT22;30894;51.740;19.498;2023-04-03T09:17:00;17.90;77.60
45137;DHT22;30894;51.740;19.498;2023-04-03T09:19:35;18.30;76.90
45137;DHT22;30894;51.740;19.498;2023-04-03T09:22:28;18.70;76.30
45137;DHT22;30894;51.740;19.498;2023-04-03T09:25:13;19.00;75.60
45137;DHT22;30894;51.740;19.498;2023-04-03T09:27:42;19.20;75.10
45137;DHT22;30894;51.740;19.498;2023-04-03T09:30:16;19.30;74.30
45137;DHT22;30894;51.740;19.498;2023-04-03T09:32:47;19.40;74.00
45137;DHT22;30894;51.740;19.498;2023-04-03T09:35:24;19.20;74.20
45137;DHT22;30894;51.740;19.498;2023-04-03T09:37:55;18.60;75.10
45137;DHT22;30894;51.740;19.498;2023-04-03T09:43:27;18.90;74.80
45137;DHT22;30894;51.740;19.498;2023-04-03T09:46:32;18.70;75.60
45137;DHT22;30894;51.740;19.498;2023-04-03T09:49:02;19.10;75.50
45137;DHT22;30894;51.740;19.498;2023-04-03T09:51:30;18.70;75.50
45137;DHT22;30894;51.740;19.498;2023-04-03T09:53:57;18.10;76.80
45137;DHT22;30894;51.740;19.498;2023-04-03T09:56:29;18.50;77.00
45137;DHT22;30894;51.740;19.498;2023-04-03T10:04:17;19.80;74.00
45137;DHT22;30894;51.740;19.498;2023-04-03T10:06:56;20.80;72.90
45137;DHT22;30894;51.740;19.498;2023-04-03T10:09:28;21.80;70.70
45137;DHT22;30894;51.740;19.498;2023-04-03T10:12:12;22.30;69.00
45137;DHT22;30894;51.740;19.498;2023-04-03T10:14:57;21.20;69.60
45137;DHT22;30894;51.740;19.498;2023-04-03T10:31:40;18.50;76.60
45137;DHT22;30894;51.740;19.498;2023-04-03T10:34:33;17.80;77.40
45137;DHT22;30894;51.740;19.498;2023-04-03T10:37:25;17.40;78.30
45137;DHT22;30894;51.740;19.498;2023-04-03T10:39:59;17.70;78.40
45137;DHT22;30894;51.740;19.498;2023-04-03T10:42:56;17.80;77.60
45137;DHT22;30894;51.740;19.498;2023-04-03T10:45:30;18.30;77.10
45137;DHT22;30894;51.740;19.498;2023-04-03T10:51:28;20.20;73.20
45137;DHT22;30894;51.740;19.498;2023-04-03T10:54:05;21.20;71.50
45137;DHT22;30894;51.740;19.498;2023-04-03T10:56:44;21.80;69.80
45137;DHT22;30894;51.740;19.498;2023-04-03T10:59:30;22.20;68.90
45137;DHT22;30894;51.740;19.498;2023-04-03T11:02:16;22.30;68.20
45137;DHT22;30894;51.740;19.498;2023-04-03T11:04:55;22.50;68.10
45137;DHT22;30894;51.740;19.498;2023-04-03T11:07:28;21.80;68.70
45137;DHT22;30894;51.740;19.498;2023-04-03T11:10:18;20.70;70.60
45137;DHT22;30894;51.740;19.498;2023-04-03T11:12:52;20.20;72.00
45137;DHT22;30894;51.740;19.498;2023-04-03T11:15:24;19.60;72.90
45137;DHT22;30894;51.740;19.498;2023-04-03T11:17:58;19.90;73.20
45137;DHT22;30894;51.740;19.498;2023-04-03T11:20:30;20.40;72.40
45137;DHT22;30894;51.740;19.498;2023-04-03T11:23:15;21.00;72.00
45137;DHT22;30894;51.740;19.498;2023-04-03T11:25:51;21.30;70.30
45137;DHT22;30894;51.740;19.498;2023-04-03T11:28:18;21.50;69.70
45137;DHT22;30894;51.740;19.498;2023-04-03T11:36:43;22.40;68.20
45137;DHT22;30894;51.740;19.498;2023-04-03T11:45:36;19.70;71.70
45137;DHT22;30894;51.740;19.498;2023-04-03T11:53:40;17.80;76.00
45137;DHT22;30894;51.740;19.498;2023-04-03T12:01:56;18.80;73.20
45137;DHT22;30894;51.740;19.498;2023-04-03T12:04:25;17.60;74.50
45137;DHT22;30894;51.740;19.498;2023-04-03T12:07:01;17.60;76.30
45137;DHT22;30894;51.740;19.498;2023-04-03T12:12:31;18.30;74.80
45137;DHT22;30894;51.740;19.498;2023-04-03T12:17:48;20.00;71.50
45137;DHT22;30894;51.740;19.498;2023-04-03T12:23:32;18.50;72.30
45137;DHT22;30894;51.740;19.498;2023-04-03T12:26:21;17.40;74.30
45137;DHT22;30894;51.740;19.498;2023-04-03T12:28:51;16.40;76.10
45137;DHT22;30894;51.740;19.498;2023-04-03T12:31:20;16.40;77.80
45137;DHT22;30894;51.740;19.498;2023-04-03T12:34:13;17.30;76.40
45137;DHT22;30894;51.740;19.498;2023-04-03T12:36:50;16.70;75.60
45137;DHT22;30894;51.740;19.498;2023-04-03T12:39:55;15.80;77.00
45137;DHT22;30894;51.740;19.498;2023-04-03T12:45:41;16.30;78.20
45137;DHT22;30894;51.740;19.498;2023-04-03T12:48:24;17.30;75.30
45137;DHT22;30894;51.740;19.498;2023-04-03T12:50:52;17.00;75.10
45137;DHT22;30894;51.740;19.498;2023-04-03T12:53:27;16.30;76.00
45137;DHT22;30894;51.740;19.498;2023-04-03T12:56:23;15.60;77.00
45137;DHT22;30894;51.740;19.498;2023-04-03T12:58:51;14.80;78.10
45137;DHT22;30894;51.740;19.498;2023-04-03T13:01:22;14.30;79.70
45137;DHT22;30894;51.740;19.498;2023-04-03T13:03:57;14.00;80.20
45137;DHT22;30894;51.740;19.498;2023-04-03T13:06:27;13.50;81.10
45137;DHT22;30894;51.740;19.498;2023-04-03T13:08:59;12.90;82.30
45137;DHT22;30894;51.740;19.498;2023-04-03T13:11:30;13.10;83.80
45137;DHT22;30894;51.740;19.498;2023-04-03T13:14:04;13.20;83.10
45137;DHT22;30894;51.740;19.498;2023-04-03T13:16:32;12.70;83.20
45137;DHT22;30894;51.740;19.498;2023-04-03T13:18:59;12.30;84.10
45137;DHT22;30894;51.740;19.498;2023-04-03T13:21:31;11.90;84.80
45137;DHT22;30894;51.740;19.498;2023-04-03T13:24:00;11.60;85.70
45137;DHT22;30894;51.740;19.498;2023-04-03T13:26:31;11.40;86.30
45137;DHT22;30894;51.740;19.498;2023-04-03T13:29:21;11.20;86.80
45137;DHT22;30894;51.740;19.498;2023-04-03T13:31:53;10.80;87.70
45137;DHT22;30894;51.740;19.498;2023-04-03T13:34:23;10.40;88.60
45137;DHT22;30894;51.740;19.498;2023-04-03T13:39:23;9.80;90.40
45137;DHT22;30894;51.740;19.498;2023-04-03T13:41:56;10.20;90.70
45137;DHT22;30894;51.740;19.498;2023-04-03T13:44:35;10.30;90.20
45137;DHT22;30894;51.740;19.498;2023-04-03T13:50:31;9.80;90.50
45137;DHT22;30894;51.740;19.498;2023-04-03T13:53:11;9.70;90.90
45137;DHT22;30894;51.740;19.498;2023-04-03T13:55:55;9.60;91.00
45137;DHT22;30894;51.740;19.498;2023-04-03T13:58:25;9.40;91.20
45137;DHT22;30894;51.740;19.498;2023-04-03T14:01:21;9.20;91.50
45137;DHT22;30894;51.740;19.498;2023-04-03T14:03:57;8.80;91.90
45137;DHT22;30894;51.740;19.498;2023-04-03T14:06:27;8.50;92.60
45137;DHT22;30894;51.740;19.498;2023-04-03T14:08:54;8.40;93.30
45137;DHT22;30894;51.740;19.498;2023-04-03T14:11:27;8.30;93.80
45137;DHT22;30894;51.740;19.498;2023-04-03T14:13:57;8.30;93.90
45137;DHT22;30894;51.740;19.498;2023-04-03T14:16:29;8.40;94.20
45137;DHT22;30894;51.740;19.498;2023-04-03T14:18:56;9.30;92.80
45137;DHT22;30894;51.740;19.498;2023-04-03T14:21:23;9.40;91.70
45137;DHT22;30894;51.740;19.498;2023-04-03T14:23:49;9.10;91.60
45137;DHT22;30894;51.740;19.498;2023-04-03T14:26:19;8.80;91.90
45137;DHT22;30894;51.740;19.498;2023-04-03T14:28:49;8.50;92.50
45137;DHT22;30894;51.740;19.498;2023-04-03T14:31:17;8.20;93.00
45137;DHT22;30894;51.740;19.498;2023-04-03T14:33:44;8.10;93.50
45137;DHT22;30894;51.740;19.498;2023-04-03T14:36:16;8.00;94.00
45137;DHT22;30894;51.740;19.498;2023-04-03T14:38:44;7.90;94.10
45137;DHT22;30894;51.740;19.498;2023-04-03T14:41:17;7.80;94.30
45137;DHT22;30894;51.740;19.498;2023-04-03T14:43:46;7.60;94.60
45137;DHT22;30894;51.740;19.498;2023-04-03T14:46:19;7.50;94.90
45137;DHT22;30894;51.740;19.498;2023-04-03T14:48:48;7.30;95.40
45137;DHT22;30894;51.740;19.498;2023-04-03T14:51:15;7.20;95.80
45137;DHT22;30894;51.740;19.498;2023-04-03T14:53:42;7.20;96.00
45137;DHT22;30894;51.740;19.498;2023-04-03T14:56:25;7.20;96.00
45137;DHT22;30894;51.740;19.498;2023-04-03T14:58:59;7.30;95.90
45137;DHT22;30894;51.740;19.498;2023-04-03T15:01:27;7.30;95.60
45137;DHT22;30894;51.740;19.498;2023-04-03T15:03:54;7.30;95.60
45137;DHT22;30894;51.740;19.498;2023-04-03T15:06:20;7.30;95.80
45137;DHT22;30894;51.740;19.498;2023-04-03T15:08:48;7.20;95.60
45137;DHT22;30894;51.740;19.498;2023-04-03T15:11:14;7.10;95.80
45137;DHT22;30894;51.740;19.498;2023-04-03T15:13:40;7.00;96.00
45137;DHT22;30894;51.740;19.498;2023-04-03T15:16:17;7.00;96.20
45137;DHT22;30894;51.740;19.498;2023-04-03T15:18:45;7.00;96.20
45137;DHT22;30894;51.740;19.498;2023-04-03T15:21:12;6.90;96.20
45137;DHT22;30894;51.740;19.498;2023-04-03T15:23:38;6.90;96.30
45137;DHT22;30894;51.740;19.498;2023-04-03T15:26:05;6.80;96.40
45137;DHT22;30894;51.740;19.498;2023-04-03T15:28:37;6.80;96.40
45137;DHT22;30894;51.740;19.498;2023-04-03T15:31:05;6.80;96.30
45137;DHT22;30894;51.740;19.498;2023-04-03T15:33:32;6.80;96.30
45137;DHT22;30894;51.740;19.498;2023-04-03T15:36:00;6.80;96.40
45137;DHT22;30894;51.740;19.498;2023-04-03T15:38:26;6.70;96.50
45137;DHT22;30894;51.740;19.498;2023-04-03T15:40:54;6.60;96.60
45137;DHT22;30894;51.740;19.498;2023-04-03T15:43:21;6.40;97.00
45137;DHT22;30894;51.740;19.498;2023-04-03T15:45:48;6.20;97.30
45137;DHT22;30894;51.740;19.498;2023-04-03T15:48:14;6.00;97.70
45137;DHT22;30894;51.740;19.498;2023-04-03T15:50:41;6.00;98.00
45137;DHT22;30894;51.740;19.498;2023-04-03T15:53:08;5.90;98.30
45137;DHT22;30894;51.740;19.498;2023-04-03T15:55:37;5.80;98.40
45137;DHT22;30894;51.740;19.498;2023-04-03T15:58:04;5.70;98.50
45137;DHT22;30894;51.740;19.498;2023-04-03T16:00:30;5.70;98.50
45137;DHT22;30894;51.740;19.498;2023-04-03T16:03:05;5.60;98.70
45137;DHT22;30894;51.740;19.498;2023-04-03T16:05:36;5.60;98.70
45137;DHT22;30894;51.740;19.498;2023-04-03T16:08:03;5.50;98.80
45137;DHT22;30894;51.740;19.498;2023-04-03T16:10:31;5.40;98.80
45137;DHT22;30894;51.740;19.498;2023-04-03T16:12:57;5.40;99.00
45137;DHT22;30894;51.740;19.498;2023-04-03T16:15:23;5.30;99.20
45137;DHT22;30894;51.740;19.498;2023-04-03T16:17:50;5.20;99.40
45137;DHT22;30894;51.740;19.498;2023-04-03T16:20:17;5.10;99.50
45137;DHT22;30894;51.740;19.498;2023-04-03T16:22:44;5.00;99.70
45137;DHT22;30894;51.740;19.498;2023-04-03T16:25:11;5.00;99.90
45137;DHT22;30894;51.740;19.498;2023-04-03T16:27:37;4.90;99.90
45137;DHT22;30894;51.740;19.498;2023-04-03T16:30:04;4.80;99.90
45137;DHT22;30894;51.740;19.498;2023-04-03T16:32:32;4.70;99.90
45137;DHT22;30894;51.740;19.498;2023-04-03T16:34:59;4.60;99.90
45137;DHT22;30894;51.740;19.498;2023-04-03T16:37:25;4.50;99.90
45137;DHT22;30894;51.740;19.498;2023-04-03T16:39:52;4.40;99.90
45137;DHT22;30894;51.740;19.498;2023-04-03T16:42:18;4.40;99.90
45137;DHT22;30894;51.740;19.498;2023-04-03T16:44:44;4.30;99.90
45137;DHT22;30894;51.740;19.498;2023-04-03T16:47:10;4.30;99.90
45137;DHT22;30894;51.740;19.498;2023-04-03T16:49:39;4.20;99.90
45137;DHT22;30894;51.740;19.498;2023-04-03T16:52:05;4.10;99.90
45137;DHT22;30894;51.740;19.498;2023-04-03T16:54:32;4.10;99.90
45137;DHT22;30894;51.740;19.498;2023-04-03T16:56:58;4.00;99.90
45137;DHT22;30894;51.740;19.498;2023-04-03T16:59:25;3.90;99.90
45137;DHT22;30894;51.740;19.498;2023-04-03T17:01:51;3.80;99.90
45137;DHT22;30894;51.740;19.498;2023-04-03T17:04:17;3.60;99.90